createdAt,value
2018-10-03T00:01:41.670Z,19.77
2018-10-03T00:04:09.852Z,21.27
2018-10-03T00:06:38.107Z,25.00
2018-10-03T00:09:07.903Z,18.82
2018-10-03T00:11:36.108Z,20.32
2018-10-03T00:14:04.644Z,27.22
2018-10-03T00:16:32.843Z,20.02
2018-10-03T00:19:01.048Z,20.02
2018-10-03T00:21:29.307Z,23.55
2018-10-03T00:23:57.491Z,24.55
2018-10-03T00:26:25.733Z,23.20
2018-10-03T00:28:53.980Z,22.00
2018-10-03T00:31:22.164Z,23.83
2018-10-03T00:33:50.340Z,25.00
2018-10-03T00:36:18.608Z,24.63
2018-10-03T00:38:46.791Z,25.45
2018-10-03T00:41:14.979Z,26.70
2018-10-03T00:43:43.178Z,25.95
2018-10-03T00:46:11.356Z,24.32
2018-10-03T00:48:39.552Z,24.02
2018-10-03T00:51:07.760Z,21.85
2018-10-03T00:53:35.955Z,30.82
2018-10-03T00:56:04.202Z,30.10
2018-10-03T00:58:32.400Z,30.27
2018-10-03T01:01:00.592Z,27.98
2018-10-03T01:03:28.794Z,30.02
2018-10-03T01:05:56.989Z,32.13
2018-10-03T01:08:25.192Z,33.30
2018-10-03T01:10:53.384Z,32.67
2018-10-03T01:13:21.583Z,35.00
2018-10-03T01:15:49.764Z,29.27
2018-10-03T01:18:19.006Z,27.70
2018-10-03T01:20:47.229Z,35.68
2018-10-03T01:23:15.419Z,28.57
2018-10-03T01:25:43.612Z,27.13
2018-10-03T01:28:11.806Z,26.07
2018-10-03T01:30:40.007Z,41.80
2018-10-03T01:33:08.207Z,24.52
2018-10-03T01:35:36.412Z,25.95
2018-10-03T01:38:04.588Z,27.58
2018-10-03T01:40:32.853Z,23.55
2018-10-03T01:43:01.003Z,23.80
2018-10-03T01:45:29.191Z,23.73
2018-10-03T01:47:57.495Z,24.92
2018-10-03T01:50:25.683Z,26.12
2018-10-03T01:52:53.910Z,22.58
2018-10-03T01:55:22.116Z,25.62
2018-10-03T01:57:50.314Z,26.75
2018-10-03T02:00:18.469Z,27.02
2018-10-03T02:02:46.639Z,29.65
2018-10-03T02:05:14.830Z,24.87
2018-10-03T02:07:43.040Z,22.27
2018-10-03T02:10:11.240Z,31.48
2018-10-03T02:12:39.428Z,26.42
2018-10-03T02:15:07.615Z,37.65
2018-10-03T02:17:35.830Z,34.50
2018-10-03T02:20:04.065Z,36.60
2018-10-03T02:22:32.253Z,40.05
2018-10-03T02:25:00.460Z,44.08
2018-10-03T02:27:28.689Z,42.53
2018-10-03T02:29:56.872Z,50.73
2018-10-03T02:32:25.062Z,44.20
2018-10-03T02:34:53.247Z,47.65
2018-10-03T02:37:21.551Z,57.00
2018-10-03T02:39:49.742Z,44.48
2018-10-03T02:42:18.098Z,46.95
2018-10-03T02:44:46.308Z,44.90
2018-10-03T02:47:14.529Z,55.50
2018-10-03T02:49:42.695Z,58.98
2018-10-03T02:52:10.911Z,67.70
2018-10-03T02:54:39.159Z,67.92
2018-10-03T02:57:07.430Z,58.00
2018-10-03T02:59:35.629Z,57.60
2018-10-03T03:02:03.826Z,61.25
2018-10-03T03:04:32.028Z,60.60
2018-10-03T03:07:00.228Z,64.72
2018-10-03T03:09:28.460Z,53.30
2018-10-03T03:11:56.691Z,62.88
2018-10-03T03:14:24.877Z,53.75
2018-10-03T03:16:53.103Z,65.50
2018-10-03T03:19:21.328Z,55.23
2018-10-03T03:21:49.543Z,56.88
2018-10-03T03:24:17.732Z,66.37
2018-10-03T03:26:45.984Z,60.88
2018-10-03T03:29:14.150Z,58.98
2018-10-03T03:31:42.323Z,63.42
2018-10-03T03:34:10.536Z,61.45
2018-10-03T03:36:38.777Z,59.85
2018-10-03T03:39:07.740Z,62.13
2018-10-03T03:41:36.080Z,58.05
2018-10-03T03:44:04.316Z,55.60
2018-10-03T03:46:32.550Z,48.85
2018-10-03T03:49:00.753Z,49.08
2018-10-03T03:51:28.948Z,56.25
2018-10-03T03:53:57.190Z,51.53
2018-10-03T03:56:25.651Z,47.50
2018-10-03T03:58:53.894Z,46.20
2018-10-03T04:01:22.135Z,53.20
2018-10-03T04:03:50.376Z,44.63
2018-10-03T04:06:18.595Z,50.65
2018-10-03T04:08:46.796Z,55.28
2018-10-03T04:11:15.010Z,40.33
2018-10-03T04:13:43.268Z,46.63
2018-10-03T04:16:11.505Z,47.25
2018-10-03T04:18:39.727Z,43.40
2018-10-03T04:21:07.930Z,43.17
2018-10-03T04:23:36.146Z,45.43
2018-10-03T04:26:04.383Z,47.95
2018-10-03T04:28:32.588Z,43.35
2018-10-03T04:31:00.815Z,57.20
2018-10-03T04:33:29.040Z,52.13
2018-10-03T04:35:57.259Z,58.35
2018-10-03T04:38:25.440Z,59.45
2018-10-03T04:40:53.656Z,55.23
2018-10-03T04:43:21.839Z,58.05
2018-10-03T04:45:50.113Z,53.45
2018-10-03T04:48:18.337Z,48.87
2018-10-03T04:50:46.578Z,52.23
2018-10-03T04:53:14.813Z,50.35
2018-10-03T04:55:43.025Z,66.60
2018-10-03T04:58:11.252Z,49.85
2018-10-03T05:00:39.517Z,50.90
2018-10-03T05:03:07.724Z,62.08
2018-10-03T05:05:35.907Z,56.08
2018-10-03T05:08:04.128Z,60.45
2018-10-03T05:10:32.334Z,58.55
2018-10-03T05:13:00.537Z,46.80
2018-10-03T05:15:28.745Z,53.70
2018-10-03T05:17:56.965Z,52.98
2018-10-03T05:20:25.176Z,62.88
2018-10-03T05:22:53.510Z,53.85
2018-10-03T05:25:21.733Z,47.75
2018-10-03T05:27:50.190Z,51.87
2018-10-03T05:30:18.329Z,48.80
2018-10-03T05:32:46.572Z,49.05
2018-10-03T05:35:14.838Z,43.57
2018-10-03T05:37:43.186Z,44.80
2018-10-03T05:40:11.568Z,49.27
2018-10-03T05:42:39.786Z,52.45
2018-10-03T05:45:08.093Z,42.30
2018-10-03T05:47:36.307Z,39.63
2018-10-03T05:50:04.528Z,46.85
2018-10-03T05:52:32.726Z,54.00
2018-10-03T05:55:00.936Z,41.58
2018-10-03T05:57:29.151Z,56.92
2018-10-03T05:59:57.355Z,53.63
2018-10-03T06:02:25.549Z,41.00
2018-10-03T06:04:53.771Z,48.48
2018-10-03T06:07:21.993Z,53.28
2018-10-03T06:09:50.196Z,45.85
2018-10-03T06:12:18.481Z,47.55
2018-10-03T06:14:46.620Z,45.43
2018-10-03T06:17:14.799Z,43.60
2018-10-03T06:19:44.853Z,45.30
2018-10-03T06:22:15.208Z,38.23
2018-10-03T06:24:43.431Z,42.62
2018-10-03T06:27:12.129Z,31.85
2018-10-03T06:29:40.315Z,42.30
2018-10-03T06:32:08.460Z,32.25
2018-10-03T06:34:36.618Z,32.88
2018-10-03T06:37:04.800Z,24.50
2018-10-03T06:39:33.063Z,37.48
2018-10-03T06:42:01.252Z,34.30
2018-10-03T06:44:29.439Z,22.82
2018-10-03T06:46:57.616Z,26.20
2018-10-03T06:49:25.768Z,20.90
2018-10-03T06:51:53.923Z,24.45
2018-10-03T06:54:22.081Z,18.32
2018-10-03T06:56:50.318Z,25.15
2018-10-03T06:59:18.464Z,20.62
2018-10-03T07:01:46.618Z,12.90
2018-10-03T07:04:14.808Z,17.80
2018-10-03T07:06:42.955Z,21.77
2018-10-03T07:09:11.120Z,28.87
2018-10-03T07:11:39.348Z,24.53
2018-10-03T07:14:07.513Z,19.37
2018-10-03T07:16:35.668Z,22.90
2018-10-03T07:19:03.836Z,17.73
2018-10-03T07:21:31.999Z,17.67
2018-10-03T07:24:00.155Z,11.60
2018-10-03T07:26:28.311Z,19.63
2018-10-03T07:28:56.479Z,24.37
2018-10-03T07:31:24.633Z,13.67
2018-10-03T07:33:52.855Z,20.23
2018-10-03T07:36:21.040Z,16.27
2018-10-03T07:38:49.238Z,17.13
2018-10-03T07:41:17.413Z,16.77
2018-10-03T07:43:45.708Z,25.97
2018-10-03T07:46:13.903Z,12.63
2018-10-03T07:48:44.316Z,20.50
2018-10-03T07:51:12.484Z,16.47
2018-10-03T07:53:40.788Z,24.13
2018-10-03T07:56:08.983Z,14.93
2018-10-03T07:58:37.143Z,24.93
2018-10-03T08:01:05.334Z,21.97
2018-10-03T08:03:33.534Z,23.27
2018-10-03T08:06:01.666Z,18.57
2018-10-03T08:08:29.827Z,16.30
2018-10-03T08:10:57.991Z,21.07
2018-10-03T08:13:26.145Z,18.10
2018-10-03T08:15:54.319Z,18.03
2018-10-03T08:18:22.496Z,20.27
2018-10-03T08:20:50.672Z,18.83
2018-10-03T08:23:18.832Z,13.10
2018-10-03T08:25:47.110Z,19.23
2018-10-03T08:28:15.477Z,24.70
2018-10-03T08:30:43.619Z,21.60
2018-10-03T08:33:11.840Z,17.43
2018-10-03T08:35:40.000Z,19.17
2018-10-03T08:38:08.188Z,25.90
2018-10-03T08:40:36.339Z,9.87
2018-10-03T08:43:04.514Z,16.23
2018-10-03T08:45:32.727Z,14.77
2018-10-03T08:48:00.904Z,15.47
2018-10-03T08:50:29.073Z,14.70
2018-10-03T08:52:57.219Z,15.90
2018-10-03T08:55:25.472Z,19.83
2018-10-03T08:57:53.642Z,16.17
2018-10-03T09:00:21.865Z,17.97
2018-10-03T09:02:50.108Z,18.70
2018-10-03T09:05:18.314Z,26.50
2018-10-03T09:07:46.523Z,13.80
2018-10-03T09:10:14.839Z,12.33
2018-10-03T09:12:43.047Z,24.67
2018-10-03T09:15:11.208Z,23.00
2018-10-03T09:17:39.411Z,17.87
2018-10-03T09:20:07.745Z,16.07
2018-10-03T09:22:35.916Z,20.10
2018-10-03T09:25:04.173Z,15.70
2018-10-03T09:27:32.370Z,15.23
2018-10-03T09:30:00.584Z,12.97
2018-10-03T09:32:28.838Z,17.63
2018-10-03T09:34:57.024Z,13.30
2018-10-03T09:37:25.292Z,21.13
2018-10-03T09:39:53.465Z,21.80
2018-10-03T09:42:21.665Z,16.10
2018-10-03T09:44:49.830Z,15.70
2018-10-03T09:47:18.037Z,19.20
2018-10-03T09:49:46.301Z,17.90
2018-10-03T09:52:14.438Z,24.37
2018-10-03T09:54:42.615Z,15.57
2018-10-03T09:57:10.903Z,19.17
2018-10-03T09:59:39.260Z,22.43
2018-10-03T10:02:07.415Z,19.40
2018-10-03T10:04:35.705Z,18.00
2018-10-03T10:07:03.960Z,18.13
2018-10-03T10:09:32.152Z,20.27
2018-10-03T10:12:00.369Z,13.70
2018-10-03T10:14:28.585Z,15.20
2018-10-03T10:16:57.042Z,14.17
2018-10-03T10:19:25.269Z,21.60
2018-10-03T10:21:53.478Z,16.10
2018-10-03T10:24:21.687Z,15.60
2018-10-03T10:26:49.915Z,20.23
2018-10-03T10:29:18.124Z,15.57
2018-10-03T10:31:46.350Z,21.93
2018-10-03T10:34:14.491Z,15.53
2018-10-03T10:36:42.702Z,8.63
2018-10-03T10:39:12.026Z,14.50
2018-10-03T10:41:40.502Z,17.40
2018-10-03T10:44:08.575Z,13.93
2018-10-03T10:46:38.081Z,12.13
2018-10-03T10:49:06.272Z,19.40
2018-10-03T10:51:34.534Z,11.93
2018-10-03T10:54:02.780Z,16.60
2018-10-03T10:56:30.981Z,24.50
2018-10-03T10:58:59.142Z,16.70
2018-10-03T11:01:27.486Z,16.17
2018-10-03T11:03:55.752Z,16.77
2018-10-03T11:06:24.070Z,14.90
2018-10-03T11:08:52.323Z,14.77
2018-10-03T11:11:20.652Z,13.30
2018-10-03T11:13:48.908Z,20.13
2018-10-03T11:16:17.153Z,13.87
2018-10-03T11:18:45.433Z,11.90
2018-10-03T11:21:13.667Z,11.50
2018-10-03T11:23:42.049Z,11.70
2018-10-03T11:26:10.044Z,14.07
2018-10-03T11:28:38.269Z,14.37
2018-10-03T11:31:06.525Z,11.47
2018-10-03T11:33:34.729Z,11.80
2018-10-03T11:36:02.938Z,16.33
2018-10-03T11:38:31.119Z,17.57
2018-10-03T11:40:59.358Z,11.90
2018-10-03T11:43:27.548Z,9.40
2018-10-03T11:45:55.789Z,11.60
2018-10-03T11:48:24.052Z,20.27
2018-10-03T11:50:52.274Z,11.70
2018-10-03T11:53:20.485Z,18.27
2018-10-03T11:55:48.698Z,13.23
2018-10-03T11:58:16.941Z,14.37
2018-10-03T12:00:45.161Z,19.10
2018-10-03T12:03:13.472Z,23.30
2018-10-03T12:05:43.636Z,12.60
2018-10-03T12:08:11.868Z,16.60
2018-10-03T12:10:40.061Z,18.00
2018-10-03T12:13:08.283Z,18.13
2018-10-03T12:15:36.482Z,20.57
2018-10-03T12:18:04.684Z,16.30
2018-10-03T12:20:32.851Z,12.03
2018-10-03T12:23:01.003Z,14.20
2018-10-03T12:25:29.228Z,20.87
2018-10-03T12:27:57.401Z,14.63
2018-10-03T12:30:25.580Z,11.47
2018-10-03T12:32:53.784Z,14.87
2018-10-03T12:35:27.320Z,14.33
2018-10-03T12:37:55.520Z,11.57
2018-10-03T12:40:23.704Z,18.37
2018-10-03T12:42:51.927Z,15.90
2018-10-03T12:45:20.127Z,10.13
2018-10-03T12:47:48.344Z,11.03
2018-10-03T12:50:16.552Z,11.33
2018-10-03T12:52:44.719Z,10.67
2018-10-03T12:55:12.980Z,15.90
2018-10-03T12:57:41.170Z,17.57
2018-10-03T13:00:09.436Z,11.73
2018-10-03T13:02:37.624Z,15.27
2018-10-03T13:05:05.911Z,11.33
2018-10-03T13:07:34.141Z,15.77
2018-10-03T13:10:02.452Z,20.30
2018-10-03T13:12:30.644Z,12.10
2018-10-03T13:14:58.863Z,11.87
2018-10-03T13:17:27.029Z,14.87
2018-10-03T13:19:55.204Z,17.13
2018-10-03T13:22:23.379Z,16.90
2018-10-03T13:24:51.699Z,15.10
2018-10-03T13:27:19.873Z,17.57
2018-10-03T13:29:48.053Z,15.33
2018-10-03T13:32:16.280Z,16.53
2018-10-03T13:34:44.472Z,19.23
2018-10-03T13:37:12.643Z,20.60
2018-10-03T13:39:40.860Z,15.67
2018-10-03T13:42:09.076Z,14.80
2018-10-03T13:44:37.284Z,17.30
2018-10-03T13:47:05.564Z,15.73
2018-10-03T13:49:33.793Z,16.27
2018-10-03T13:52:01.961Z,18.03
2018-10-03T13:54:31.212Z,17.47
2018-10-03T13:56:59.455Z,12.73
2018-10-03T13:59:27.616Z,14.00
2018-10-03T14:01:55.900Z,11.93
2018-10-03T14:04:24.043Z,11.30
2018-10-03T14:06:52.216Z,18.03
2018-10-03T14:09:20.440Z,11.70
2018-10-03T14:11:48.684Z,12.90
2018-10-03T14:14:16.884Z,12.10
2018-10-03T14:16:45.132Z,14.80
2018-10-03T14:19:13.419Z,14.80
2018-10-03T14:21:41.689Z,17.03
2018-10-03T14:24:09.878Z,14.00
2018-10-03T14:26:38.135Z,11.33
2018-10-03T14:29:06.309Z,21.43
2018-10-03T14:31:34.510Z,13.77
2018-10-03T14:34:02.664Z,13.67
2018-10-03T14:36:30.836Z,17.30
2018-10-03T14:38:59.427Z,23.17
2018-10-03T14:41:32.099Z,14.10
2018-10-03T14:44:00.325Z,19.67
2018-10-03T14:46:28.606Z,12.50
2018-10-03T14:48:56.718Z,13.90
2018-10-03T14:51:24.883Z,14.90
2018-10-03T14:53:53.048Z,17.97
2018-10-03T14:56:21.263Z,28.40
2018-10-03T14:58:49.605Z,9.03
2018-10-03T15:01:17.705Z,9.03
2018-10-03T15:03:46.039Z,13.60
2018-10-03T15:06:14.266Z,12.33
2018-10-03T15:08:42.560Z,19.80
2018-10-03T15:11:10.756Z,18.60
2018-10-03T15:13:38.979Z,12.20
2018-10-03T15:16:07.228Z,13.00
2018-10-03T15:18:35.463Z,17.33
2018-10-03T15:21:03.671Z,10.83
2018-10-03T15:23:31.843Z,18.80
2018-10-03T15:26:00.038Z,16.33
2018-10-03T15:28:28.256Z,12.33
2018-10-03T15:30:56.583Z,16.20
2018-10-03T15:33:24.767Z,10.80
2018-10-03T15:35:52.949Z,16.23
2018-10-03T15:38:21.096Z,12.40
2018-10-03T15:40:49.271Z,17.23
2018-10-03T15:43:17.444Z,13.77
2018-10-03T15:45:45.628Z,16.50
2018-10-03T15:48:13.882Z,16.00
2018-10-03T15:50:41.999Z,15.33
2018-10-03T15:53:10.254Z,14.43
2018-10-03T15:55:38.679Z,16.97
2018-10-03T15:58:06.831Z,23.07
2018-10-03T16:00:35.372Z,15.17
2018-10-03T16:03:03.571Z,11.67
2018-10-03T16:05:31.726Z,20.20
2018-10-03T16:07:59.878Z,20.63
2018-10-03T16:10:28.043Z,16.07
2018-10-03T16:12:56.192Z,14.63
2018-10-03T16:15:24.364Z,11.60
2018-10-03T16:17:53.120Z,16.30
2018-10-03T16:20:21.340Z,11.23
2018-10-03T16:22:49.514Z,9.70
2018-10-03T16:25:17.691Z,15.93
2018-10-03T16:27:45.921Z,10.70
2018-10-03T16:30:14.135Z,9.93
2018-10-03T16:32:42.294Z,12.83
2018-10-03T16:35:10.814Z,13.00
2018-10-03T16:37:39.025Z,14.70
2018-10-03T16:40:09.751Z,21.30
2018-10-03T16:42:37.920Z,8.80
2018-10-03T16:45:06.136Z,11.47
2018-10-03T16:47:34.356Z,13.23
2018-10-03T16:50:02.650Z,11.57
2018-10-03T16:52:30.790Z,11.27
2018-10-03T16:54:58.967Z,15.78
2018-10-03T16:57:27.174Z,14.23
2018-10-03T16:59:55.401Z,16.47
2018-10-03T17:02:23.562Z,10.50
2018-10-03T17:04:51.735Z,14.45
2018-10-03T17:07:19.980Z,10.68
2018-10-03T17:09:48.216Z,12.80
2018-10-03T17:12:16.390Z,16.42
2018-10-03T17:14:44.605Z,16.90
2018-10-03T17:17:12.835Z,15.38
2018-10-03T17:19:41.046Z,13.25
2018-10-03T17:22:09.299Z,10.93
2018-10-03T17:24:38.308Z,11.25
2018-10-03T17:27:06.649Z,14.03
2018-10-03T17:29:34.825Z,17.50
2018-10-03T17:32:03.009Z,22.60
2018-10-03T17:34:31.332Z,10.50
2018-10-03T17:37:00.624Z,12.23
2018-10-03T17:39:28.926Z,14.58
2018-10-03T17:41:57.371Z,13.00
2018-10-03T17:44:25.739Z,12.90
2018-10-03T17:46:56.296Z,8.50
2018-10-03T17:49:24.547Z,9.03
2018-10-03T17:51:52.832Z,11.10
2018-10-03T17:54:21.040Z,9.95
2018-10-03T17:56:49.251Z,14.13
2018-10-03T17:59:17.470Z,13.10
2018-10-03T18:01:48.510Z,12.23
2018-10-03T18:04:16.796Z,8.08
2018-10-03T18:06:45.003Z,15.40
2018-10-03T18:09:13.237Z,14.83
2018-10-03T18:11:41.369Z,15.18
2018-10-03T18:14:09.530Z,15.93
2018-10-03T18:16:37.730Z,8.68
2018-10-03T18:19:05.945Z,10.08
2018-10-03T18:21:34.792Z,10.55
2018-10-03T18:24:02.957Z,17.48
2018-10-03T18:26:31.136Z,11.00
2018-10-03T18:28:59.308Z,22.52
2018-10-03T18:31:27.575Z,7.92
2018-10-03T18:33:55.935Z,11.18
2018-10-03T18:36:24.178Z,12.47
2018-10-03T18:38:55.094Z,7.75
2018-10-03T18:41:23.466Z,13.32
2018-10-03T18:43:51.716Z,10.58
2018-10-03T18:46:19.978Z,10.25
2018-10-03T18:48:48.405Z,8.73
2018-10-03T18:51:16.838Z,8.95
2018-10-03T18:53:45.012Z,12.43
2018-10-03T18:56:13.258Z,7.87
2018-10-03T18:58:41.529Z,8.28
2018-10-03T19:01:09.855Z,12.35
2018-10-03T19:03:38.027Z,11.75
2018-10-03T19:06:06.213Z,17.25
2018-10-03T19:08:34.751Z,9.75
2018-10-03T19:11:03.018Z,11.30
2018-10-03T19:13:31.224Z,17.05
2018-10-03T19:15:59.453Z,9.08
2018-10-03T19:18:27.595Z,7.60
2018-10-03T19:20:55.763Z,14.07
2018-10-03T19:23:23.940Z,17.62
2018-10-03T19:25:52.093Z,13.53
2018-10-03T19:28:20.332Z,12.10
2018-10-03T19:30:48.487Z,13.72
2018-10-03T19:33:19.647Z,15.05
2018-10-03T19:35:47.879Z,9.35
2018-10-03T19:38:15.960Z,7.97
2018-10-03T19:40:44.103Z,9.28
2018-10-03T19:43:12.263Z,13.98
2018-10-03T19:45:40.540Z,8.98
2018-10-03T19:48:08.791Z,11.43
2018-10-03T19:50:36.859Z,6.90
2018-10-03T19:53:05.040Z,8.55
2018-10-03T19:55:33.867Z,18.65
2018-10-03T19:58:02.058Z,12.90
2018-10-03T20:00:30.444Z,12.33
2018-10-03T20:02:58.599Z,10.58
2018-10-03T20:05:26.840Z,8.83
2018-10-03T20:07:55.074Z,13.78
2018-10-03T20:10:23.232Z,14.95
2018-10-03T20:12:51.541Z,11.78
2018-10-03T20:15:20.638Z,10.13
2018-10-03T20:17:48.838Z,14.43
2018-10-03T20:20:17.050Z,7.22
2018-10-03T20:22:45.197Z,12.78
2018-10-03T20:25:14.435Z,9.65
2018-10-03T20:27:42.622Z,12.18
2018-10-03T20:30:10.788Z,8.65
2018-10-03T20:32:38.932Z,6.83
2018-10-03T20:35:07.054Z,9.30
2018-10-03T20:37:35.182Z,6.42
2018-10-03T20:40:03.619Z,13.70
2018-10-03T20:42:31.932Z,9.95
2018-10-03T20:45:00.367Z,8.95
2018-10-03T20:47:28.662Z,8.55
2018-10-03T20:49:56.907Z,7.80
2018-10-03T20:52:25.216Z,11.12
2018-10-03T20:54:53.502Z,7.10
2018-10-03T20:57:21.729Z,18.98
2018-10-03T20:59:50.034Z,8.58
2018-10-03T21:02:18.276Z,14.78
2018-10-03T21:04:46.659Z,9.33
2018-10-03T21:07:14.911Z,15.23
2018-10-03T21:09:43.260Z,8.38
2018-10-03T21:12:11.628Z,5.65
2018-10-03T21:14:39.983Z,12.07
2018-10-03T21:17:08.292Z,7.30
2018-10-03T21:19:36.626Z,14.23
2018-10-03T21:22:05.103Z,14.60
2018-10-03T21:24:33.462Z,7.85
2018-10-03T21:27:01.763Z,9.10
2018-10-03T21:29:30.078Z,13.90
2018-10-03T21:31:58.506Z,11.78
2018-10-03T21:34:27.502Z,9.75
2018-10-03T21:36:56.968Z,8.38
2018-10-03T21:39:25.628Z,4.83
2018-10-03T21:41:54.720Z,11.75
2018-10-03T21:44:23.676Z,10.88
2018-10-03T21:46:52.616Z,7.00
2018-10-03T21:49:20.995Z,6.08
2018-10-03T21:51:49.263Z,7.15
2018-10-03T21:54:18.261Z,9.38
2018-10-03T21:56:47.244Z,10.13
2018-10-03T21:59:15.931Z,9.28
2018-10-03T22:01:44.817Z,8.63
2018-10-03T22:04:14.125Z,8.25
2018-10-03T22:06:43.111Z,5.10
2018-10-03T22:09:11.518Z,9.63
2018-10-03T22:11:40.501Z,5.80
2018-10-03T22:14:09.106Z,9.88
2018-10-03T22:16:37.312Z,6.35
2018-10-03T22:19:05.481Z,8.43
2018-10-03T22:21:33.623Z,5.10
2018-10-03T22:24:02.599Z,5.15
2018-10-03T22:26:30.819Z,7.75
2018-10-03T22:28:59.007Z,8.53
2018-10-03T22:31:27.152Z,9.18
2018-10-03T22:33:55.327Z,11.53
2018-10-03T22:36:23.684Z,5.70
2018-10-03T22:38:51.897Z,8.80
2018-10-03T22:41:20.227Z,9.13
2018-10-03T22:43:48.434Z,11.57
2018-10-03T22:46:16.567Z,7.80
2018-10-03T22:48:44.752Z,9.00
2018-10-03T22:51:12.936Z,8.33
2018-10-03T22:53:41.111Z,6.20
2018-10-03T22:56:09.292Z,7.12
2018-10-03T22:58:37.514Z,8.95
2018-10-03T23:01:05.792Z,6.25
2018-10-03T23:03:33.975Z,14.18
2018-10-03T23:06:02.222Z,7.05
2018-10-03T23:08:31.374Z,6.72
2018-10-03T23:10:59.894Z,7.17
2018-10-03T23:13:28.067Z,4.90
2018-10-03T23:15:56.208Z,6.70
2018-10-03T23:18:24.360Z,5.78
2018-10-03T23:20:52.634Z,11.50
2018-10-03T23:23:20.753Z,6.70
2018-10-03T23:25:49.171Z,7.72
2018-10-03T23:28:17.410Z,8.83
2018-10-03T23:30:45.613Z,5.22
2018-10-03T23:33:13.822Z,5.92
2018-10-03T23:35:42.036Z,10.90
2018-10-03T23:38:10.233Z,5.35
2018-10-03T23:40:38.447Z,7.30
2018-10-03T23:43:06.646Z,7.55
2018-10-03T23:45:34.871Z,7.28
2018-10-03T23:48:03.048Z,5.62
2018-10-03T23:50:31.199Z,8.98
2018-10-03T23:52:59.362Z,5.62
2018-10-03T23:55:27.512Z,6.08
2018-10-03T23:57:55.675Z,6.12
